Time;durP1;ratioP1;P1;durP2;ratioP2;P2;SDS_P1;SDS_P2;PMS_P1;PMS_P2;Temp;Humidity;BMP_temperature;BMP_pressure;BME280_temperature;BME280_humidity;BME280_pressure;Samples;Min_cycle;Max_cycle;Signal;HPM_P1;HPM_P2
2022/03/24 00:00:27;;;;;;;;;;;20.40;31.90;;;;;;5069516;28;20015;-46
2022/03/24 00:02:54;;;;;;;;;;;20.40;31.90;;;;;;5066091;28;19928;-44
2022/03/24 00:05:21;;;;;;;;;;;20.40;31.90;;;;;;5060918;28;19948;-43
2022/03/24 00:07:47;;;;;;;;;;;20.40;31.90;;;;;;5063246;28;20031;-43
2022/03/24 00:10:14;;;;;;;;;;;20.40;31.90;;;;;;5069916;28;19947;-43
2022/03/24 00:12:43;;;;;;;;;;;20.40;31.90;;;;;;5069285;28;19935;-45
2022/03/24 00:15:09;;;;;;;;;;;20.40;32.00;;;;;;5066851;28;19924;-43
2022/03/24 00:17:36;;;;;;;;;;;20.40;31.90;;;;;;5064567;28;19993;-46
2022/03/24 00:20:03;;;;;;;;;;;20.40;31.90;;;;;;5065343;28;19978;-48
2022/03/24 00:22:30;;;;;;;;;;;20.40;31.90;;;;;;5074255;28;20286;-45
2022/03/24 00:24:57;;;;;;;;;;;20.40;31.90;;;;;;5063433;28;20280;-42
2022/03/24 00:39:37;;;;;;;;;;;20.40;32.00;;;;;;5078196;28;19916;-44
2022/03/24 00:42:07;;;;;;;;;;;20.40;32.00;;;;;;5072464;28;20138;-44
2022/03/24 00:44:34;;;;;;;;;;;20.40;32.00;;;;;;5106354;28;19928;-45
2022/03/24 00:47:00;;;;;;;;;;;20.40;32.00;;;;;;5074335;28;20451;-43
2022/03/24 00:49:27;;;;;;;;;;;20.40;32.00;;;;;;5063191;28;19927;-43
2022/03/24 00:51:54;;;;;;;;;;;20.40;32.00;;;;;;5069127;28;20029;-45
2022/03/24 00:54:23;;;;;;;;;;;20.40;32.10;;;;;;5073193;28;19924;-44
2022/03/24 00:56:51;;;;;;;;;;;20.40;32.10;;;;;;5067525;28;19920;-44
2022/03/24 00:59:18;;;;;;;;;;;20.40;32.10;;;;;;5074266;28;20015;-42
2022/03/24 01:01:44;;;;;;;;;;;20.40;32.10;;;;;;5061276;28;19920;-46
2022/03/24 01:04:12;;;;;;;;;;;20.40;32.10;;;;;;5067791;28;19984;-45
2022/03/24 01:06:41;;;;;;;;;;;20.40;32.10;;;;;;5072578;28;20328;-42
2022/03/24 01:09:08;;;;;;;;;;;20.40;32.10;;;;;;5063186;28;19925;-43
2022/03/24 01:11:35;;;;;;;;;;;20.40;32.20;;;;;;5077641;28;19921;-45
2022/03/24 01:14:05;;;;;;;;;;;20.40;32.10;;;;;;5070007;28;20015;-43
2022/03/24 01:16:35;;;;;;;;;;;20.40;32.20;;;;;;5062502;28;19921;-44
2022/03/24 01:19:03;;;;;;;;;;;20.40;32.20;;;;;;5088290;28;19921;-44
2022/03/24 01:21:29;;;;;;;;;;;20.40;32.10;;;;;;5070681;28;20366;-45
2022/03/24 01:23:56;;;;;;;;;;;20.40;32.10;;;;;;5071303;28;20040;-46
2022/03/24 01:26:23;;;;;;;;;;;20.40;32.20;;;;;;5073061;28;19964;-48
2022/03/24 01:28:50;;;;;;;;;;;20.40;32.20;;;;;;5060652;28;20023;-48
2022/03/24 01:31:20;;;;;;;;;;;20.40;32.10;;;;;;5072173;28;19921;-43
2022/03/24 01:33:47;;;;;;;;;;;20.40;32.20;;;;;;5074015;28;19927;-43
2022/03/24 01:36:14;;;;;;;;;;;20.40;32.20;;;;;;5071014;28;19931;-44
2022/03/24 01:38:41;;;;;;;;;;;20.40;32.20;;;;;;5072817;28;19921;-46
2022/03/24 01:41:08;;;;;;;;;;;20.40;32.20;;;;;;5073321;28;19959;-43
2022/03/24 01:43:42;;;;;;;;;;;20.40;32.20;;;;;;5073000;28;19942;-43
2022/03/24 01:46:10;;;;;;;;;;;20.40;32.80;;;;;;5073409;28;19995;-46
2022/03/24 01:48:41;;;;;;;;;;;20.40;32.20;;;;;;5068913;28;20035;-46
2022/03/24 01:51:08;;;;;;;;;;;20.40;32.20;;;;;;5062691;28;19928;-48
2022/03/24 01:53:35;;;;;;;;;;;20.50;32.30;;;;;;5105968;28;19921;-43
2022/03/24 01:56:03;;;;;;;;;;;20.40;32.20;;;;;;5068456;28;19948;-45
2022/03/24 01:58:30;;;;;;;;;;;20.40;32.20;;;;;;5070302;28;20003;-46
2022/03/24 02:01:01;;;;;;;;;;;20.50;32.30;;;;;;5071609;28;19975;-46
2022/03/24 02:03:28;;;;;;;;;;;20.40;32.20;;;;;;5062340;28;19937;-46
2022/03/24 02:05:56;;;;;;;;;;;20.40;32.30;;;;;;5070945;28;19932;-43
2022/03/24 02:08:23;;;;;;;;;;;20.40;32.90;;;;;;5067587;28;19932;-45
2022/03/24 02:10:50;;;;;;;;;;;20.40;32.20;;;;;;5070788;28;20015;-45
2022/03/24 02:13:17;;;;;;;;;;;20.40;32.30;;;;;;5070348;28;19935;-43
2022/03/24 02:15:44;;;;;;;;;;;20.40;32.90;;;;;;5066570;28;19959;-49
2022/03/24 02:18:12;;;;;;;;;;;20.40;32.20;;;;;;5072118;28;20307;-46
2022/03/24 02:20:39;;;;;;;;;;;20.40;32.30;;;;;;5072710;28;19920;-47
2022/03/24 02:23:07;;;;;;;;;;;20.40;32.30;;;;;;5068550;28;20028;-45
2022/03/24 02:25:35;;;;;;;;;;;20.40;32.30;;;;;;5068773;28;19946;-44
2022/03/24 02:28:03;;;;;;;;;;;20.40;32.30;;;;;;5073072;28;20365;-44
2022/03/24 02:30:30;;;;;;;;;;;20.40;32.30;;;;;;5072180;28;19960;-45
2022/03/24 02:32:57;;;;;;;;;;;20.40;32.30;;;;;;5064229;28;19921;-44
2022/03/24 02:35:24;;;;;;;;;;;20.40;32.30;;;;;;5071376;28;19930;-48
2022/03/24 02:37:51;;;;;;;;;;;20.40;32.30;;;;;;5071801;28;20317;-44
2022/03/24 02:40:19;;;;;;;;;;;20.40;32.30;;;;;;5061515;28;20288;-45
2022/03/24 02:42:46;;;;;;;;;;;20.40;32.30;;;;;;5058617;28;19935;-46
2022/03/24 02:45:13;;;;;;;;;;;20.40;32.30;;;;;;5072150;28;19920;-48
2022/03/24 02:47:40;;;;;;;;;;;20.40;32.30;;;;;;5070178;28;19924;-44
2022/03/24 02:50:09;;;;;;;;;;;20.40;32.30;;;;;;5073543;28;20599;-50
2022/03/24 02:52:36;;;;;;;;;;;20.40;32.30;;;;;;5070807;28;19933;-45
2022/03/24 02:55:03;;;;;;;;;;;20.40;32.40;;;;;;5104236;28;19927;-47
2022/03/24 02:57:31;;;;;;;;;;;20.40;32.30;;;;;;5071248;28;20011;-47
2022/03/24 02:59:58;;;;;;;;;;;20.40;32.30;;;;;;5071920;28;19924;-43
2022/03/24 03:02:25;;;;;;;;;;;20.40;32.30;;;;;;5072419;28;20019;-46
2022/03/24 03:04:53;;;;;;;;;;;20.40;32.40;;;;;;5058970;28;20011;-46
2022/03/24 03:07:20;;;;;;;;;;;20.40;32.40;;;;;;5069075;28;20022;-46
2022/03/24 03:09:47;;;;;;;;;;;20.40;32.40;;;;;;5068574;28;20413;-45
2022/03/24 03:12:16;;;;;;;;;;;20.40;32.40;;;;;;5070042;28;19966;-42
2022/03/24 03:14:46;;;;;;;;;;;20.40;32.40;;;;;;5100121;28;19932;-43
2022/03/24 03:17:15;;;;;;;;;;;20.40;32.40;;;;;;5067614;28;19920;-44
2022/03/24 03:19:42;;;;;;;;;;;20.40;32.40;;;;;;5066278;28;20145;-45
2022/03/24 03:22:10;;;;;;;;;;;20.40;32.40;;;;;;5071927;28;19983;-46
2022/03/24 03:24:39;;;;;;;;;;;20.40;32.40;;;;;;5069961;28;19920;-47
2022/03/24 03:27:06;;;;;;;;;;;20.40;32.40;;;;;;5070734;28;19956;-48
2022/03/24 03:29:33;;;;;;;;;;;20.40;32.40;;;;;;5069729;28;19935;-46
2022/03/24 03:32:02;;;;;;;;;;;20.40;32.40;;;;;;5069509;28;19925;-48
2022/03/24 03:34:29;;;;;;;;;;;20.40;32.40;;;;;;5066287;28;20028;-46
2022/03/24 03:36:59;;;;;;;;;;;20.40;32.40;;;;;;5070534;28;19932;-48
2022/03/24 03:39:25;;;;;;;;;;;20.40;32.40;;;;;;5067926;28;19943;-49
2022/03/24 03:41:52;;;;;;;;;;;20.40;32.40;;;;;;5068820;28;19932;-45
2022/03/24 03:44:19;;;;;;;;;;;20.40;32.40;;;;;;5068030;28;19947;-47
2022/03/24 03:46:46;;;;;;;;;;;20.40;32.40;;;;;;5067384;28;19924;-46
2022/03/24 03:49:14;;;;;;;;;;;20.40;32.50;;;;;;5066406;28;19966;-46
2022/03/24 03:51:41;;;;;;;;;;;20.40;32.40;;;;;;5065961;28;20358;-47
2022/03/24 03:54:08;;;;;;;;;;;20.40;32.50;;;;;;5069941;28;19966;-48
2022/03/24 03:56:36;;;;;;;;;;;20.40;32.50;;;;;;5067279;28;19921;-43
2022/03/24 03:59:02;;;;;;;;;;;20.40;32.50;;;;;;5061963;28;19970;-45
2022/03/24 04:01:30;;;;;;;;;;;20.40;32.50;;;;;;5072595;28;19924;-45
2022/03/24 04:03:57;;;;;;;;;;;20.40;32.50;;;;;;5064924;28;19967;-47
2022/03/24 04:06:25;;;;;;;;;;;20.40;32.50;;;;;;5068640;28;19928;-46
2022/03/24 04:08:52;;;;;;;;;;;20.40;32.50;;;;;;5064565;28;19925;-49
2022/03/24 04:11:19;;;;;;;;;;;20.40;32.50;;;;;;5066257;28;19978;-44
2022/03/24 04:13:48;;;;;;;;;;;20.40;32.50;;;;;;5092224;28;19924;-43
2022/03/24 04:16:15;;;;;;;;;;;20.40;32.50;;;;;;5105326;28;20329;-44
2022/03/24 04:18:43;;;;;;;;;;;20.40;32.50;;;;;;5071400;28;19959;-47
2022/03/24 04:21:10;;;;;;;;;;;20.40;32.50;;;;;;5106048;28;19920;-45
2022/03/24 04:23:38;;;;;;;;;;;20.40;32.50;;;;;;5070339;28;20019;-46
2022/03/24 04:26:06;;;;;;;;;;;20.40;32.50;;;;;;5068687;28;19932;-46
2022/03/24 04:28:33;;;;;;;;;;;20.40;32.50;;;;;;5072976;28;19971;-43
2022/03/24 04:30:59;;;;;;;;;;;20.40;32.50;;;;;;5071899;28;19966;-43
2022/03/24 04:33:26;;;;;;;;;;;20.40;32.60;;;;;;5107627;28;19963;-43
2022/03/24 04:35:53;;;;;;;;;;;20.40;32.50;;;;;;5074113;28;19920;-43
2022/03/24 04:38:20;;;;;;;;;;;20.40;32.50;;;;;;5095525;28;19920;-43
2022/03/24 04:40:48;;;;;;;;;;;20.40;32.50;;;;;;5073224;28;19920;-48
2022/03/24 04:43:15;;;;;;;;;;;20.40;32.50;;;;;;5096532;28;20181;-45
2022/03/24 04:45:42;;;;;;;;;;;20.40;32.50;;;;;;5071900;28;19920;-43
2022/03/24 04:48:10;;;;;;;;;;;20.40;32.60;;;;;;5075915;28;19947;-43
2022/03/24 04:50:37;;;;;;;;;;;20.40;32.60;;;;;;5073466;28;19920;-44
2022/03/24 04:53:06;;;;;;;;;;;20.40;32.60;;;;;;5073539;28;19932;-43
2022/03/24 04:55:33;;;;;;;;;;;20.40;32.50;;;;;;5074363;28;19927;-43
2022/03/24 04:58:03;;;;;;;;;;;20.40;32.60;;;;;;5070839;28;19958;-46
2022/03/24 05:00:30;;;;;;;;;;;20.40;32.60;;;;;;5073807;28;19927;-43
2022/03/24 05:02:57;;;;;;;;;;;20.40;32.60;;;;;;5073714;28;19992;-43
2022/03/24 05:05:23;;;;;;;;;;;20.40;32.60;;;;;;5065031;28;19920;-43
2022/03/24 05:07:50;;;;;;;;;;;20.40;32.60;;;;;;5072464;28;19924;-43
2022/03/24 05:10:17;;;;;;;;;;;20.40;32.60;;;;;;5072471;28;20269;-44
2022/03/24 05:12:44;;;;;;;;;;;20.40;32.60;;;;;;5070489;28;19952;-43
2022/03/24 05:15:14;;;;;;;;;;;20.40;32.60;;;;;;5065143;28;20441;-45
2022/03/24 05:17:40;;;;;;;;;;;20.40;32.60;;;;;;5073424;28;19920;-43
2022/03/24 05:20:08;;;;;;;;;;;20.40;32.60;;;;;;5071158;28;19924;-44
2022/03/24 05:22:42;;;;;;;;;;;20.40;32.60;;;;;;5090938;28;20018;-43
2022/03/24 05:25:10;;;;;;;;;;;20.40;32.60;;;;;;5073111;28;19921;-46
2022/03/24 05:27:37;;;;;;;;;;;20.40;32.60;;;;;;5086899;28;19921;-43
2022/03/24 05:30:06;;;;;;;;;;;20.40;32.60;;;;;;5072850;28;20377;-44
2022/03/24 05:32:35;;;;;;;;;;;20.40;32.60;;;;;;5071655;28;20027;-49
2022/03/24 05:35:01;;;;;;;;;;;20.40;32.60;;;;;;5068662;28;19925;-47
2022/03/24 05:37:28;;;;;;;;;;;20.40;32.60;;;;;;5101418;28;19928;-43
2022/03/24 05:39:55;;;;;;;;;;;20.40;32.60;;;;;;5079227;28;20079;-42
2022/03/24 05:42:22;;;;;;;;;;;20.40;32.60;;;;;;5072721;28;19925;-43
2022/03/24 05:44:48;;;;;;;;;;;20.40;32.60;;;;;;5072557;28;20396;-45
2022/03/24 05:47:15;;;;;;;;;;;20.40;32.60;;;;;;5073776;28;20350;-45
2022/03/24 05:49:49;;;;;;;;;;;20.40;32.60;;;;;;5074081;28;19968;-43
2022/03/24 05:52:16;;;;;;;;;;;20.40;32.60;;;;;;5070589;28;19940;-44
2022/03/24 05:54:43;;;;;;;;;;;20.40;32.70;;;;;;5073847;28;19931;-42
2022/03/24 05:57:10;;;;;;;;;;;20.40;32.60;;;;;;5073825;28;20020;-43
2022/03/24 05:59:37;;;;;;;;;;;20.40;32.60;;;;;;5060170;28;19920;-42
2022/03/24 06:02:04;;;;;;;;;;;20.40;32.60;;;;;;5069790;28;19924;-43
2022/03/24 06:04:30;;;;;;;;;;;20.40;32.70;;;;;;5068575;28;20015;-42
2022/03/24 06:07:01;;;;;;;;;;;20.40;32.60;;;;;;5071523;28;19921;-43
2022/03/24 06:09:28;;;;;;;;;;;20.40;32.60;;;;;;5093201;28;19944;-46
2022/03/24 06:11:56;;;;;;;;;;;20.40;32.70;;;;;;5069100;28;19920;-44
2022/03/24 06:14:25;;;;;;;;;;;20.40;32.70;;;;;;5066651;28;19925;-44
2022/03/24 06:16:52;;;;;;;;;;;20.40;32.70;;;;;;5097239;28;19927;-46
2022/03/24 06:19:19;;;;;;;;;;;20.40;32.70;;;;;;5067404;28;19932;-45
2022/03/24 06:21:46;;;;;;;;;;;20.40;32.70;;;;;;5055593;28;19924;-48
2022/03/24 06:24:15;;;;;;;;;;;20.40;32.70;;;;;;5096069;28;20341;-48
2022/03/24 06:26:42;;;;;;;;;;;20.40;32.70;;;;;;5099612;28;20400;-43
2022/03/24 06:29:13;;;;;;;;;;;20.40;33.30;;;;;;5070429;28;20008;-43
2022/03/24 06:31:41;;;;;;;;;;;20.40;32.70;;;;;;5078340;28;20419;-43
2022/03/24 06:34:08;;;;;;;;;;;20.40;32.70;;;;;;5075134;28;19920;-42
2022/03/24 06:36:35;;;;;;;;;;;20.40;32.70;;;;;;5070465;28;20014;-44
2022/03/24 06:39:02;;;;;;;;;;;20.40;32.70;;;;;;5071586;28;19925;-42
2022/03/24 06:41:30;;;;;;;;;;;20.40;32.70;;;;;;5079336;28;20354;-48
2022/03/24 06:43:59;;;;;;;;;;;20.40;32.70;;;;;;5068026;28;19942;-44
2022/03/24 06:46:26;;;;;;;;;;;20.40;32.70;;;;;;5097415;28;19950;-44
2022/03/24 06:48:54;;;;;;;;;;;20.40;32.70;;;;;;5067240;28;19925;-46
2022/03/24 06:51:21;;;;;;;;;;;20.40;32.70;;;;;;5064333;28;20354;-44
2022/03/24 06:53:47;;;;;;;;;;;20.40;32.70;;;;;;5081344;28;19925;-44
2022/03/24 06:56:14;;;;;;;;;;;20.40;32.70;;;;;;5066467;28;20027;-45
2022/03/24 06:58:43;;;;;;;;;;;20.40;32.70;;;;;;5063393;28;19927;-43
2022/03/24 07:01:10;;;;;;;;;;;20.40;32.70;;;;;;5097028;28;20423;-44
2022/03/24 07:03:38;;;;;;;;;;;20.40;32.70;;;;;;5067117;28;19932;-44
2022/03/24 07:06:05;;;;;;;;;;;20.40;32.70;;;;;;5066295;28;20434;-43
2022/03/24 07:08:32;;;;;;;;;;;20.40;32.70;;;;;;5070087;28;20265;-44
2022/03/24 07:10:59;;;;;;;;;;;20.40;32.80;;;;;;5071514;28;20084;-46
2022/03/24 07:13:26;;;;;;;;;;;20.40;32.70;;;;;;5067442;28;19932;-45
2022/03/24 07:15:55;;;;;;;;;;;20.40;32.80;;;;;;5067281;28;20038;-44
2022/03/24 07:18:24;;;;;;;;;;;20.40;32.70;;;;;;5071471;28;19924;-45
2022/03/24 07:20:51;;;;;;;;;;;20.40;32.80;;;;;;5068102;28;19931;-46
2022/03/24 07:23:18;;;;;;;;;;;20.40;33.30;;;;;;5066981;28;19931;-46
2022/03/24 07:25:45;;;;;;;;;;;20.40;32.70;;;;;;5071771;28;20011;-45
2022/03/24 07:28:12;;;;;;;;;;;20.40;32.70;;;;;;5070995;28;20436;-42
2022/03/24 07:30:42;;;;;;;;;;;20.40;32.80;;;;;;5068785;28;19920;-45
2022/03/24 07:33:11;;;;;;;;;;;20.40;32.80;;;;;;5065669;28;19943;-46
2022/03/24 07:35:37;;;;;;;;;;;20.40;32.80;;;;;;5061927;28;19924;-46
2022/03/24 07:38:04;;;;;;;;;;;20.40;32.80;;;;;;5069473;28;19921;-45
2022/03/24 07:40:33;;;;;;;;;;;20.40;32.80;;;;;;5104116;28;19960;-46
2022/03/24 07:42:59;;;;;;;;;;;20.40;32.80;;;;;;5095756;28;19971;-46
2022/03/24 07:45:30;;;;;;;;;;;20.40;32.80;;;;;;5062520;28;19921;-43
2022/03/24 07:48:03;;;;;;;;;;;20.40;32.80;;;;;;5070393;28;19932;-43
2022/03/24 07:50:31;;;;;;;;;;;20.40;32.80;;;;;;5078686;28;19928;-47
2022/03/24 07:52:59;;;;;;;;;;;20.40;32.80;;;;;;5061304;28;20015;-48
2022/03/24 07:55:25;;;;;;;;;;;20.40;32.70;;;;;;5067354;28;19928;-48
2022/03/24 07:57:52;;;;;;;;;;;20.40;32.60;;;;;;5066524;28;19920;-47
2022/03/24 08:00:20;;;;;;;;;;;20.40;32.40;;;;;;5057524;28;19921;-47
2022/03/24 08:02:52;;;;;;;;;;;20.40;32.00;;;;;;5100889;27;19957;-55
2022/03/24 08:05:19;;;;;;;;;;;20.40;31.30;;;;;;5067934;28;19920;-47
2022/03/24 08:07:47;;;;;;;;;;;20.30;30.90;;;;;;5054265;28;20006;-54
2022/03/24 08:10:14;;;;;;;;;;;20.30;30.70;;;;;;5065281;28;20009;-52
2022/03/24 08:12:40;;;;;;;;;;;20.30;30.80;;;;;;5071618;28;20273;-51
2022/03/24 08:15:08;;;;;;;;;;;20.20;30.90;;;;;;5062804;28;19956;-54
2022/03/24 08:17:38;;;;;;;;;;;20.20;31.00;;;;;;5063034;28;20298;-49
2022/03/24 08:20:06;;;;;;;;;;;20.20;31.10;;;;;;5089224;27;19920;-52
2022/03/24 08:22:32;;;;;;;;;;;20.20;31.20;;;;;;5065360;28;19920;-50
2022/03/24 08:25:02;;;;;;;;;;;20.20;31.30;;;;;;5061845;28;19921;-50
2022/03/24 08:27:29;;;;;;;;;;;20.20;31.40;;;;;;5063762;28;20218;-53
2022/03/24 08:29:56;;;;;;;;;;;20.20;31.40;;;;;;5066512;28;19921;-51
2022/03/24 08:32:22;;;;;;;;;;;20.20;31.40;;;;;;5063166;28;19921;-46
2022/03/24 08:34:49;;;;;;;;;;;20.20;31.50;;;;;;5066995;28;19924;-48
2022/03/24 08:37:16;;;;;;;;;;;20.20;31.50;;;;;;5065003;28;19927;-48
2022/03/24 08:39:43;;;;;;;;;;;20.20;31.50;;;;;;5066870;28;19924;-55
2022/03/24 08:42:11;;;;;;;;;;;20.20;31.50;;;;;;5067248;28;19925;-47
2022/03/24 08:44:38;;;;;;;;;;;20.20;31.60;;;;;;5061273;28;19928;-47
2022/03/24 08:47:06;;;;;;;;;;;20.20;31.60;;;;;;5072850;28;19930;-51
2022/03/24 08:49:33;;;;;;;;;;;20.20;31.60;;;;;;5068877;28;19951;-47
2022/03/24 08:52:00;;;;;;;;;;;20.20;31.60;;;;;;5064885;28;19921;-49
2022/03/24 08:54:27;;;;;;;;;;;20.20;31.60;;;;;;5061704;28;19959;-49
2022/03/24 08:56:53;;;;;;;;;;;20.20;31.60;;;;;;5065409;28;19964;-55
2022/03/24 08:59:22;;;;;;;;;;;20.20;31.70;;;;;;5061521;28;19940;-47
2022/03/24 09:01:48;;;;;;;;;;;20.20;31.70;;;;;;5065984;28;20408;-49
2022/03/24 09:04:16;;;;;;;;;;;20.20;31.60;;;;;;5065236;28;19931;-53
2022/03/24 09:06:44;;;;;;;;;;;20.20;31.60;;;;;;5060152;28;19931;-52
2022/03/24 09:09:11;;;;;;;;;;;20.30;31.70;;;;;;5060951;28;19978;-53
2022/03/24 09:11:38;;;;;;;;;;;20.30;31.70;;;;;;5061916;28;19924;-52
2022/03/24 09:14:05;;;;;;;;;;;20.30;31.70;;;;;;5059416;28;19970;-51
2022/03/24 09:16:33;;;;;;;;;;;20.30;31.70;;;;;;5062412;28;19932;-51
2022/03/24 09:19:00;;;;;;;;;;;20.30;31.70;;;;;;5063158;28;20357;-53
2022/03/24 09:21:27;;;;;;;;;;;20.30;31.70;;;;;;5064115;28;19935;-54
2022/03/24 09:23:53;;;;;;;;;;;20.30;31.70;;;;;;5059975;28;19970;-53
2022/03/24 09:26:20;;;;;;;;;;;20.30;31.60;;;;;;5060724;28;19920;-57
2022/03/24 09:28:51;;;;;;;;;;;20.30;31.70;;;;;;5067966;28;19921;-52
2022/03/24 09:31:17;;;;;;;;;;;20.30;31.60;;;;;;5065922;28;20264;-60
2022/03/24 09:33:45;;;;;;;;;;;20.30;31.60;;;;;;5063269;28;19924;-47
2022/03/24 09:36:12;;;;;;;;;;;20.30;31.60;;;;;;5060583;28;19920;-51
2022/03/24 09:38:41;;;;;;;;;;;20.30;31.60;;;;;;5065072;28;19928;-53
2022/03/24 09:41:08;;;;;;;;;;;20.30;31.60;;;;;;5056230;28;20004;-49
2022/03/24 09:43:36;;;;;;;;;;;20.30;31.50;;;;;;5057524;28;19924;-52
2022/03/24 09:46:03;;;;;;;;;;;20.30;31.50;;;;;;5062893;28;19930;-51
2022/03/24 09:48:30;;;;;;;;;;;20.30;31.60;;;;;;5060133;28;19928;-46
2022/03/24 09:50:58;;;;;;;;;;;20.30;31.50;;;;;;5059481;28;19929;-53
2022/03/24 09:53:25;;;;;;;;;;;20.30;31.50;;;;;;5059839;28;19921;-49
2022/03/24 09:55:52;;;;;;;;;;;20.30;31.50;;;;;;5057702;28;20011;-52
2022/03/24 09:58:19;;;;;;;;;;;20.30;31.50;;;;;;5060720;28;20320;-52
2022/03/24 10:00:46;;;;;;;;;;;20.30;31.50;;;;;;5061984;28;20019;-48
2022/03/24 10:03:14;;;;;;;;;;;20.30;31.50;;;;;;5057707;28;19920;-50
2022/03/24 10:05:55;;;;;;;;;;;20.30;31.50;;;;;;5049819;28;20294;-55
2022/03/24 10:08:23;;;;;;;;;;;20.30;31.50;;;;;;5060722;28;19952;-58
2022/03/24 10:10:50;;;;;;;;;;;20.30;31.40;;;;;;5059315;28;19924;-49
2022/03/24 10:13:23;;;;;;;;;;;20.30;31.50;;;;;;5061587;28;19925;-49
2022/03/24 10:15:50;;;;;;;;;;;20.30;31.50;;;;;;5051279;28;19932;-53
2022/03/24 10:18:19;;;;;;;;;;;20.30;31.50;;;;;;5049305;28;19925;-56
2022/03/24 10:20:46;;;;;;;;;;;20.30;31.20;;;;;;5061400;28;20055;-56
2022/03/24 10:23:13;;;;;;;;;;;20.30;29.40;;;;;;5057446;28;19924;-51
2022/03/24 10:25:45;;;;;;;;;;;20.30;28.90;;;;;;5058185;28;19984;-52
2022/03/24 10:28:12;;;;;;;;;;;20.20;28.40;;;;;;5089514;27;19933;-50
2022/03/24 10:30:46;;;;;;;;;;;20.10;28.70;;;;;;5062462;28;20025;-55
2022/03/24 10:33:14;;;;;;;;;;;20.00;29.00;;;;;;5056910;28;19988;-50
2022/03/24 10:35:41;;;;;;;;;;;20.00;29.20;;;;;;5092794;27;20280;-53
2022/03/24 10:38:08;;;;;;;;;;;20.00;29.40;;;;;;5055601;28;19955;-54
2022/03/24 10:40:36;;;;;;;;;;;20.00;29.60;;;;;;5060964;28;19924;-54
2022/03/24 10:43:04;;;;;;;;;;;20.00;29.70;;;;;;5058974;28;20332;-53
2022/03/24 10:45:32;;;;;;;;;;;20.00;29.80;;;;;;5057881;28;20373;-53
2022/03/24 10:48:01;;;;;;;;;;;20.00;29.90;;;;;;5058367;28;19946;-51
2022/03/24 10:50:29;;;;;;;;;;;20.00;30.00;;;;;;5055216;28;20358;-47
2022/03/24 10:52:58;;;;;;;;;;;20.00;30.00;;;;;;5060817;28;19927;-58
2022/03/24 10:55:31;;;;;;;;;;;20.00;30.00;;;;;;5060615;28;20290;-55
2022/03/24 10:58:00;;;;;;;;;;;20.10;30.20;;;;;;5075206;28;19925;-58
2022/03/24 11:00:29;;;;;;;;;;;20.10;30.20;;;;;;5058516;28;19964;-52
2022/03/24 11:02:56;;;;;;;;;;;20.10;30.30;;;;;;5059294;28;19925;-57
2022/03/24 11:05:23;;;;;;;;;;;20.10;30.30;;;;;;5053466;28;19928;-58
2022/03/24 11:07:53;;;;;;;;;;;20.10;30.30;;;;;;5060137;28;19932;-52
2022/03/24 11:10:20;;;;;;;;;;;20.20;30.40;;;;;;5056974;28;19991;-50
2022/03/24 11:12:47;;;;;;;;;;;20.20;30.40;;;;;;5059027;28;20261;-48
2022/03/24 11:15:16;;;;;;;;;;;20.20;30.40;;;;;;5058870;28;20240;-51
2022/03/24 11:17:45;;;;;;;;;;;20.20;30.50;;;;;;5061881;28;19920;-51
2022/03/24 11:20:15;;;;;;;;;;;20.20;30.50;;;;;;5060990;28;20027;-52
2022/03/24 11:22:43;;;;;;;;;;;20.20;30.60;;;;;;5060173;28;19920;-47
2022/03/24 11:25:10;;;;;;;;;;;20.20;30.50;;;;;;5061786;28;19932;-48
2022/03/24 11:27:37;;;;;;;;;;;20.20;30.60;;;;;;5055742;28;20020;-56
2022/03/24 11:30:04;;;;;;;;;;;20.20;30.60;;;;;;5087589;28;20562;-50
2022/03/24 11:32:31;;;;;;;;;;;20.20;30.60;;;;;;5062304;28;20146;-57
2022/03/24 11:34:59;;;;;;;;;;;20.20;30.60;;;;;;5056297;28;19955;-56
2022/03/24 11:37:25;;;;;;;;;;;20.30;30.70;;;;;;5060696;28;19934;-52
2022/03/24 11:40:03;;;;;;;;;;;20.20;30.60;;;;;;5061416;28;19922;-54
2022/03/24 11:42:30;;;;;;;;;;;20.30;30.60;;;;;;5085143;28;19931;-53
2022/03/24 11:44:59;;;;;;;;;;;20.20;30.60;;;;;;5062878;28;20023;-52
2022/03/24 11:47:26;;;;;;;;;;;20.30;30.70;;;;;;5059767;28;19924;-49
2022/03/24 11:50:07;;;;;;;;;;;20.30;30.70;;;;;;5058068;28;19997;-49
2022/03/24 11:52:34;;;;;;;;;;;20.30;30.70;;;;;;5059193;28;19936;-58
2022/03/24 11:55:01;;;;;;;;;;;20.30;30.70;;;;;;5058123;28;19963;-50
2022/03/24 11:57:28;;;;;;;;;;;20.30;30.80;;;;;;5090449;28;20019;-54
2022/03/24 12:00:14;;;;;;;;;;;20.30;30.70;;;;;;5056031;28;20090;-57
2022/03/24 12:02:43;;;;;;;;;;;20.30;30.80;;;;;;5054616;28;19927;-53
2022/03/24 12:05:11;;;;;;;;;;;20.30;30.80;;;;;;5060489;28;20369;-49
2022/03/24 12:07:37;;;;;;;;;;;20.30;30.30;;;;;;5058068;28;20031;-47
2022/03/24 12:10:06;;;;;;;;;;;20.30;30.00;;;;;;5053145;28;19932;-56
2022/03/24 12:12:33;;;;;;;;;;;20.20;29.60;;;;;;5085146;28;19921;-56
2022/03/24 12:15:01;;;;;;;;;;;20.20;29.30;;;;;;5059688;28;19921;-50
2022/03/24 12:17:31;;;;;;;;;;;20.10;29.00;;;;;;5058301;28;19974;-50
2022/03/24 12:19:58;;;;;;;;;;;20.10;28.90;;;;;;5059079;28;20348;-49
2022/03/24 12:22:33;;;;;;;;;;;20.00;28.90;;;;;;5061827;28;19963;-49
2022/03/24 12:25:17;;;;;;;;;;;20.00;28.90;;;;;;5059806;28;19932;-53
2022/03/24 12:27:59;;;;;;;;;;;19.90;28.70;;;;;;5058323;28;20005;-56
2022/03/24 12:30:26;;;;;;;;;;;19.90;29.00;;;;;;5063108;28;20313;-51
2022/03/24 12:33:03;;;;;;;;;;;19.80;29.40;;;;;;5059206;28;19928;-54
2022/03/24 12:35:40;;;;;;;;;;;19.80;29.00;;;;;;5067465;28;20011;-52
2022/03/24 12:38:20;;;;;;;;;;;19.80;29.20;;;;;;5059748;28;19971;-52
2022/03/24 12:41:15;;;;;;;;;;;19.80;29.10;;;;;;5079823;28;20273;-53
2022/03/24 12:43:43;;;;;;;;;;;19.80;29.10;;;;;;5064285;28;20032;-59
2022/03/24 12:46:23;;;;;;;;;;;19.70;29.40;;;;;;5062977;28;20320;-54
2022/03/24 12:48:50;;;;;;;;;;;19.70;29.00;;;;;;5080825;28;19920;-52
2022/03/24 12:51:18;;;;;;;;;;;19.70;29.20;;;;;;5063447;28;19974;-52
2022/03/24 12:54:03;;;;;;;;;;;19.70;29.10;;;;;;5076501;28;19964;-53
2022/03/24 12:56:31;;;;;;;;;;;19.70;29.10;;;;;;5065414;28;19924;-57
2022/03/24 12:58:58;;;;;;;;;;;19.70;29.10;;;;;;5068039;28;19920;-53
2022/03/24 13:01:25;;;;;;;;;;;19.70;28.90;;;;;;5096049;28;20015;-55
2022/03/24 13:03:56;;;;;;;;;;;19.70;29.10;;;;;;5062523;28;19928;-50
2022/03/24 13:06:24;;;;;;;;;;;19.60;29.20;;;;;;5060680;28;20099;-50
2022/03/24 13:09:05;;;;;;;;;;;19.70;29.30;;;;;;5064559;28;20273;-51
2022/03/24 13:11:34;;;;;;;;;;;19.70;29.40;;;;;;5065009;28;20340;-54
2022/03/24 13:14:00;;;;;;;;;;;19.70;30.00;;;;;;5065370;28;19920;-56
2022/03/24 13:16:27;;;;;;;;;;;19.70;29.60;;;;;;5062981;28;19925;-53
2022/03/24 13:18:55;;;;;;;;;;;19.70;29.60;;;;;;5061638;28;20155;-56
2022/03/24 13:21:24;;;;;;;;;;;19.70;29.70;;;;;;5061912;28;19928;-54
2022/03/24 13:23:53;;;;;;;;;;;19.70;29.70;;;;;;5097428;28;19924;-49
2022/03/24 13:26:21;;;;;;;;;;;19.80;29.80;;;;;;5061614;28;19920;-55
2022/03/24 13:28:53;;;;;;;;;;;19.80;29.90;;;;;;5063918;28;20396;-56
2022/03/24 13:31:20;;;;;;;;;;;19.80;29.90;;;;;;5061676;28;19920;-53
2022/03/24 13:33:52;;;;;;;;;;;19.90;30.00;;;;;;5062964;28;19990;-52
2022/03/24 13:36:19;;;;;;;;;;;19.90;30.00;;;;;;5062906;28;20427;-54
2022/03/24 13:38:46;;;;;;;;;;;19.90;30.40;;;;;;5051047;28;19935;-49
2022/03/24 13:41:13;;;;;;;;;;;19.90;30.00;;;;;;5060399;28;20003;-53
2022/03/24 13:43:40;;;;;;;;;;;19.90;30.00;;;;;;5064312;28;20055;-52
2022/03/24 13:46:09;;;;;;;;;;;19.90;30.00;;;;;;5065389;28;19944;-53
2022/03/24 13:48:36;;;;;;;;;;;19.90;30.00;;;;;;5059565;28;19928;-54
2022/03/24 13:51:05;;;;;;;;;;;19.90;30.00;;;;;;5059935;28;20037;-53
2022/03/24 13:53:32;;;;;;;;;;;20.00;30.10;;;;;;5061911;28;20326;-53
2022/03/24 13:56:04;;;;;;;;;;;20.00;30.10;;;;;;5058254;28;20006;-52
2022/03/24 13:58:31;;;;;;;;;;;20.00;30.10;;;;;;5050931;28;19970;-54
2022/03/24 14:01:01;;;;;;;;;;;20.00;30.20;;;;;;5093551;28;20327;-52
2022/03/24 14:03:29;;;;;;;;;;;20.00;30.20;;;;;;5097914;28;19925;-50
2022/03/24 14:05:58;;;;;;;;;;;20.00;30.20;;;;;;5062683;28;20810;-52
2022/03/24 14:08:32;;;;;;;;;;;20.00;30.20;;;;;;5051435;28;20011;-47
2022/03/24 14:11:02;;;;;;;;;;;20.10;30.30;;;;;;5064639;28;20039;-53
2022/03/24 14:13:30;;;;;;;;;;;20.00;30.20;;;;;;5057961;28;19971;-49
2022/03/24 14:16:07;;;;;;;;;;;20.10;30.90;;;;;;5096629;28;20003;-56
2022/03/24 14:18:35;;;;;;;;;;;20.10;30.30;;;;;;5066911;28;20301;-47
2022/03/24 14:21:03;;;;;;;;;;;20.10;30.90;;;;;;5064587;28;20270;-51
2022/03/24 14:23:30;;;;;;;;;;;20.10;30.30;;;;;;5063608;28;19931;-56
2022/03/24 14:26:01;;;;;;;;;;;20.10;30.30;;;;;;5045642;28;19924;-51
2022/03/24 14:28:36;;;;;;;;;;;20.10;30.40;;;;;;5062543;28;19924;-46
2022/03/24 14:31:04;;;;;;;;;;;20.10;30.40;;;;;;5061153;28;19921;-52
2022/03/24 14:33:45;;;;;;;;;;;20.10;30.40;;;;;;5062796;28;19924;-51